Aérodrome :
LOGIN :

S'inscrire | Disclaimer

   EN    FR    IT 

 










Légende :    VFR   VFR Marginal   IFR   IFR Intensif   IFR Très Intensif
Visi : 
Plafond : 
>= 8 km
>= 3000ft
5 à 8 km
1000 à 3000 ft
1500m à 5 km
500 à 1000 ft
800 à 1500m
200 à 500 ft
< 800m
< 200 ft
Symboles :   Orages  Brouillard  Fortes neiges  Fortes précipitations  Vent > 20 kt
SIGMETs :   Divers  Orages  Givrage  Turbulence  Onde Orograph.  Cendres Volcan.






- Altitude de l'aérodrome : 56 ft
- Code IATA : ILY


EGPI - Islay

DERNIER METAR :
  • 241750Z 30017KT 9999 SCT020 SCT040 04/03 Q0998

METARs EXPIRÉS :
  • 241720Z 31018KT 9999 FEW013 SCT020 04/03 Q0998
  • 241650Z 29019KT 9999 FEW012 SCT045 05/03 Q0998
  • 241620Z 30019KT 9999 FEW013 SCT027 05/04 Q0997
  • 241550Z 31017KT 9999 BKN010 BKN021 05/04 Q0997
  • 241520Z 29017KT 9999 SCT009 BKN024 05/04 Q0996

TAF TAF EGPI
Valide du 24 à 15h jusqu'au 24 à 19h UTC


241401Z 2415/2419 30008KT 9999 FEW012 SCT020
PROB40
TEMPO 2415/2419 33015G25KT 6000 SHRA BKN010



MET'MAP, la Météo Aéronautique d'un coup d'oeil ! - Copyright ORBIFLY Décembre 2007 - Disclaimer

ORBIFLY MET'MAP TEAM :

Programmation & Développement : Alexandra Zaïnal
Sur une idée originale de : Baudouin d'Aumeries
Assistance à la programmation : Marc-Olivier Méhu
Soutien technique & logistique : Manuel Goepfert

Contact : metmap@orbifly.com




SOURCES & CREDITS :

   NOAA